Time;durP1;ratioP1;P1;durP2;ratioP2;P2;SDS_P1;SDS_P2;PMS_P1;PMS_P2;Temp;Humidity;BMP_temperature;BMP_pressure;BME280_temperature;BME280_humidity;BME280_pressure;Samples;Min_cycle;Max_cycle;Signal;HPM_P1;HPM_P2
2021/10/12 00:01:06;;;;;;;0.20;0.20;;;;;;;;;;5115579;28;20024;-81
2021/10/12 00:03:38;;;;;;;0.52;0.20;;;;;;;;;;5096838;28;20031;-82
2021/10/12 00:06:45;;;;;;;0.63;0.40;;;;;;;;;;5115287;28;20102;-81
2021/10/12 00:09:18;;;;;;;0.43;0.20;;;;;;;;;;5114804;28;20028;-80
2021/10/12 00:11:54;;;;;;;0.60;0.20;;;;;;;;;;5115445;28;20028;-82
2021/10/12 00:14:30;;;;;;;0.82;0.55;;;;;;;;;;5115138;28;20078;-80
2021/10/12 00:17:04;;;;;;;0.68;0.20;;;;;;;;;;5115457;28;20028;-80
2021/10/12 00:20:11;;;;;;;0.52;0.30;;;;;;;;;;5115545;28;20104;-81
2021/10/12 00:22:39;;;;;;;0.73;0.20;;;;;;;;;;5114253;28;20134;-83
2021/10/12 00:25:05;;;;;;;1.95;0.20;;;;;;;;;;5115251;28;20032;-81
2021/10/12 00:27:34;;;;;;;0.30;0.20;;;;;;;;;;5096912;28;20030;-85
2021/10/12 00:30:00;;;;;;;0.57;0.30;;;;;;;;;;5114997;28;20110;-86
2021/10/12 00:32:26;;;;;;;0.70;0.22;;;;;;;;;;5115147;28;20059;-82
2021/10/12 00:34:52;;;;;;;0.22;0.20;;;;;;;;;;5096701;28;20019;-81
2021/10/12 00:37:24;;;;;;;10.10;0.68;;;;;;;;;;5114887;28;20024;-84
2021/10/12 00:39:50;;;;;;;0.30;0.20;;;;;;;;;;5114491;28;20134;-81
2021/10/12 00:42:16;;;;;;;1.23;0.30;;;;;;;;;;5096434;28;20114;-79
2021/10/12 00:44:42;;;;;;;0.22;0.20;;;;;;;;;;5114559;28;20524;-82
2021/10/12 00:47:08;;;;;;;0.35;0.20;;;;;;;;;;5114748;28;20062;-80
2021/10/12 00:49:35;;;;;;;0.60;0.22;;;;;;;;;;5114314;28;20439;-80
2021/10/12 00:52:01;;;;;;;0.30;0.20;;;;;;;;;;5096260;28;20039;-83
2021/10/12 00:54:27;;;;;;;1.10;0.40;;;;;;;;;;5114459;28;20470;-82
2021/10/12 00:56:53;;;;;;;0.60;0.50;;;;;;;;;;5096276;28;20028;-82
2021/10/12 00:59:19;;;;;;;1.13;1.02;;;;;;;;;;5114551;28;20077;-80
2021/10/12 01:01:45;;;;;;;1.00;0.30;;;;;;;;;;5114287;28;20481;-82
2021/10/12 01:04:12;;;;;;;0.70;0.30;;;;;;;;;;5114278;28;20024;-82
2021/10/12 01:06:38;;;;;;;0.40;0.30;;;;;;;;;;5096004;28;20031;-81
2021/10/12 01:09:04;;;;;;;0.68;0.50;;;;;;;;;;5114286;28;20038;-82
2021/10/12 01:11:31;;;;;;;1.48;0.43;;;;;;;;;;5096036;28;20129;-81
2021/10/12 01:14:00;;;;;;;0.55;0.28;;;;;;;;;;5114088;28;20371;-85
2021/10/12 01:16:26;;;;;;;1.10;0.50;;;;;;;;;;5114248;28;20040;-81
2021/10/12 01:19:05;;;;;;;0.30;0.30;;;;;;;;;;5113743;28;20487;-83
2021/10/12 01:21:48;;;;;;;1.10;0.40;;;;;;;;;;5114006;28;20030;-81
2021/10/12 01:24:22;;;;;;;0.93;0.40;;;;;;;;;;5113692;28;20051;-79
2021/10/12 01:26:50;;;;;;;0.60;0.32;;;;;;;;;;5114004;28;20031;-82
2021/10/12 01:29:16;;;;;;;1.35;0.50;;;;;;;;;;5113662;28;20475;-83
2021/10/12 01:31:43;;;;;;;0.30;0.30;;;;;;;;;;5113708;28;20023;-77
2021/10/12 01:34:13;;;;;;;0.52;0.40;;;;;;;;;;5113666;28;20462;-85
2021/10/12 01:36:39;;;;;;;0.55;0.40;;;;;;;;;;5113948;28;20382;-83
2021/10/12 01:39:10;;;;;;;0.77;0.40;;;;;;;;;;5113686;28;20098;-82
2021/10/12 01:41:37;;;;;;;1.30;0.65;;;;;;;;;;5113700;28;20470;-81
2021/10/12 01:44:04;;;;;;;5.47;3.22;;;;;;;;;;5113324;28;20076;-81
2021/10/12 01:46:30;;;;;;;0.88;0.60;;;;;;;;;;5113641;28;20363;-80
2021/10/12 01:48:56;;;;;;;1.13;0.55;;;;;;;;;;5095395;28;20035;-79
2021/10/12 01:51:22;;;;;;;0.60;0.40;;;;;;;;;;5112644;28;20028;-82
2021/10/12 01:53:48;;;;;;;0.60;0.60;;;;;;;;;;5113404;28;20394;-79
2021/10/12 01:56:14;;;;;;;1.05;0.60;;;;;;;;;;5094931;28;20043;-80
2021/10/12 01:58:40;;;;;;;1.23;0.55;;;;;;;;;;5095244;28;20032;-83
2021/10/12 02:01:06;;;;;;;1.25;0.60;;;;;;;;;;5113213;28;20024;-84
2021/10/12 02:03:33;;;;;;;1.73;0.60;;;;;;;;;;5113280;28;20462;-82
2021/10/12 02:05:59;;;;;;;0.63;0.40;;;;;;;;;;5113516;28;20024;-79
2021/10/12 02:08:25;;;;;;;1.00;0.88;;;;;;;;;;5112971;28;20024;-79
2021/10/12 02:10:51;;;;;;;0.73;0.45;;;;;;;;;;5113337;28;20076;-82
2021/10/12 02:13:19;;;;;;;0.68;0.50;;;;;;;;;;5112842;28;20031;-85
2021/10/12 02:15:45;;;;;;;0.90;0.40;;;;;;;;;;5094904;28;20043;-82
2021/10/12 02:18:11;;;;;;;0.68;0.40;;;;;;;;;;5113132;28;20024;-77
2021/10/12 02:20:41;;;;;;;0.70;0.50;;;;;;;;;;5113163;28;20092;-84
2021/10/12 02:23:07;;;;;;;0.70;0.57;;;;;;;;;;5112875;28;20058;-84
2021/10/12 02:25:33;;;;;;;0.70;0.45;;;;;;;;;;5112930;28;20016;-84
2021/10/12 02:28:01;;;;;;;0.68;0.40;;;;;;;;;;5113212;28;20031;-83
2021/10/12 02:30:27;;;;;;;0.57;0.35;;;;;;;;;;5112786;28;20463;-82
2021/10/12 02:32:53;;;;;;;1.33;0.40;;;;;;;;;;5094598;28;20077;-82
2021/10/12 02:35:20;;;;;;;1.10;0.85;;;;;;;;;;5112581;28;20103;-78
2021/10/12 02:37:46;;;;;;;1.70;0.45;;;;;;;;;;5112995;28;20076;-84
2021/10/12 02:40:14;;;;;;;0.40;0.40;;;;;;;;;;5112655;28;20106;-81
2021/10/12 02:43:15;;;;;;;0.85;0.40;;;;;;;;;;5112914;28;20027;-81
2021/10/12 02:45:43;;;;;;;0.77;0.45;;;;;;;;;;5112829;28;20027;-84
2021/10/12 02:48:20;;;;;;;;;;;;;;;;;;;;;
2021/10/12 02:54:12;;;;;;;;;;;;;;;;;;;;;
2021/10/12 02:56:41;;;;;;;0.40;0.30;;;;;;;;;;5112958;28;20020;-81
2021/10/12 02:59:10;;;;;;;0.60;0.43;;;;;;;;;;5112503;28;20554;-80
2021/10/12 03:01:36;;;;;;;1.50;0.80;;;;;;;;;;5112705;28;20110;-84
2021/10/12 03:04:07;;;;;;;0.68;0.40;;;;;;;;;;5114867;28;20032;-86
2021/10/12 03:06:33;;;;;;;2.15;0.63;;;;;;;;;;5116749;28;20027;-83
2021/10/12 03:09:02;;;;;;;1.10;0.50;;;;;;;;;;5116580;28;20027;-83
2021/10/12 03:11:31;;;;;;;1.90;0.70;;;;;;;;;;5116519;28;20035;-83
2021/10/12 03:13:57;;;;;;;0.77;0.43;;;;;;;;;;5098171;28;20032;-85
2021/10/12 03:16:23;;;;;;;1.25;0.57;;;;;;;;;;5116599;28;20127;-82
2021/10/12 03:18:49;;;;;;;2.38;0.55;;;;;;;;;;5116443;28;20023;-81
2021/10/12 03:21:16;;;;;;;0.82;0.40;;;;;;;;;;5116427;28;20102;-80
2021/10/12 03:23:42;;;;;;;1.45;0.50;;;;;;;;;;5116187;28;20082;-81
2021/10/12 03:26:08;;;;;;;0.73;0.32;;;;;;;;;;5116352;28;20038;-83
2021/10/12 03:28:34;;;;;;;2.05;0.40;;;;;;;;;;5116222;28;20028;-80
2021/10/12 03:31:02;;;;;;;1.02;0.30;;;;;;;;;;5116035;28;20402;-83
2021/10/12 03:33:28;;;;;;;0.90;0.40;;;;;;;;;;5116239;28;20034;-84
2021/10/12 03:36:12;;;;;;;1.17;0.40;;;;;;;;;;5116128;28;20035;-85
2021/10/12 03:38:38;;;;;;;0.93;0.50;;;;;;;;;;5115715;28;20089;-79
2021/10/12 03:41:05;;;;;;;1.15;0.60;;;;;;;;;;5116069;28;20073;-78
2021/10/12 03:43:31;;;;;;;1.90;0.52;;;;;;;;;;5116120;28;20550;-82
2021/10/12 03:45:57;;;;;;;1.63;1.00;;;;;;;;;;5116040;28;20023;-81
2021/10/12 03:48:23;;;;;;;3.22;1.33;;;;;;;;;;5115997;28;20057;-83
2021/10/12 03:50:58;;;;;;;4.85;1.00;;;;;;;;;;5115933;28;20053;-82
2021/10/12 03:53:24;;;;;;;1.95;0.70;;;;;;;;;;5115791;28;20051;-80
2021/10/12 03:55:51;;;;;;;1.45;0.63;;;;;;;;;;5115758;28;20084;-82
2021/10/12 03:58:17;;;;;;;1.40;0.70;;;;;;;;;;5115838;28;20027;-80
2021/10/12 04:00:45;;;;;;;1.02;0.93;;;;;;;;;;5115624;28;20027;-81
2021/10/12 04:03:14;;;;;;;0.90;0.60;;;;;;;;;;5115925;28;20028;-80
2021/10/12 04:05:40;;;;;;;1.45;0.73;;;;;;;;;;5115495;28;20023;-83
2021/10/12 04:08:06;;;;;;;1.08;0.30;;;;;;;;;;5115724;28;20474;-78
2021/10/12 04:10:34;;;;;;;0.93;0.40;;;;;;;;;;5115387;28;20038;-83
2021/10/12 04:13:03;;;;;;;1.95;0.68;;;;;;;;;;5097250;28;20023;-81
2021/10/12 04:15:29;;;;;;;2.67;0.50;;;;;;;;;;5114137;28;20044;-82
2021/10/12 04:17:55;;;;;;;1.02;0.60;;;;;;;;;;5115375;28;20024;-81
2021/10/12 04:20:24;;;;;;;1.00;0.50;;;;;;;;;;5096996;28;20027;-85
2021/10/12 04:23:14;;;;;;;1.55;0.80;;;;;;;;;;5115064;28;20051;-83
2021/10/12 04:26:12;;;;;;;7.35;3.53;;;;;;;;;;5096961;28;20019;-77
2021/10/12 04:29:05;;;;;;;;;;;;;;;;;;;;;
2021/10/12 04:37:28;;;;;;;;;;;;;;;;;;;;;
2021/10/12 04:40:21;;;;;;;1.02;0.63;;;;;;;;;;5114415;28;20030;-78
2021/10/12 04:42:49;;;;;;;0.50;0.40;;;;;;;;;;5114864;28;20023;-85
2021/10/12 04:45:18;;;;;;;5.95;1.73;;;;;;;;;;5096174;28;20057;-78
2021/10/12 04:47:53;;;;;;;1.70;0.50;;;;;;;;;;5096965;28;20031;-87
2021/10/12 04:50:28;;;;;;;;;;;;;;;;;;5115034;28;20024;-84
2021/10/12 04:52:54;;;;;;;1.55;0.60;;;;;;;;;;5114822;28;19904;-78
2021/10/12 04:55:23;;;;;;;1.55;0.90;;;;;;;;;;5096040;28;20448;-86
2021/10/12 04:57:49;;;;;;;1.00;0.55;;;;;;;;;;5096146;28;20118;-85
2021/10/12 05:00:28;;;;;;;;;;;;;;;;;;;;;
2021/10/12 05:03:22;;;;;;;1.10;0.55;;;;;;;;;;5113898;28;20497;-88
2021/10/12 05:05:57;;;;;;;0.73;0.43;;;;;;;;;;5102717;28;20036;-83
2021/10/12 05:08:31;;;;;;;1.00;0.60;;;;;;;;;;5114481;28;20028;-81
2021/10/12 05:11:04;;;;;;;1.00;0.60;;;;;;;;;;5114474;28;20081;-79
2021/10/12 05:13:36;;;;;;;1.95;0.60;;;;;;;;;;5095762;28;20039;-87
2021/10/12 05:16:12;;;;;;;1.95;0.90;;;;;;;;;;5096805;28;20100;-83
2021/10/12 05:18:56;;;;;;;2.75;0.70;;;;;;;;;;5095759;28;20132;-77
2021/10/12 05:21:45;;;;;;;2.67;0.57;;;;;;;;;;5114008;28;20015;-87
2021/10/12 05:24:44;;;;;;;;;;;;;;;;;;;;;
2021/10/12 05:33:45;;;;;;;2.00;0.60;;;;;;;;;;5111275;27;20545;-82
2021/10/12 05:39:52;;;;;;;1.10;0.50;;;;;;;;;;5100645;27;20088;-79
2021/10/12 05:45:23;;;;;;;1.75;1.20;;;;;;;;;;5029602;28;20808;-80
2021/10/12 05:48:11;;;;;;;2.15;0.60;;;;;;;;;;5104321;28;20592;-77
2021/10/12 05:50:40;;;;;;;1.08;0.70;;;;;;;;;;5112516;28;20081;-83
2021/10/12 05:56:06;;;;;;;0.82;0.50;;;;;;;;;;5112363;28;20043;-81
2021/10/12 05:58:46;;;;;;;1.40;0.73;;;;;;;;;;5112409;28;20048;-79
2021/10/12 06:01:15;;;;;;;1.67;0.80;;;;;;;;;;5112334;28;20081;-80
2021/10/12 06:03:44;;;;;;;0.60;0.60;;;;;;;;;;5106509;28;20490;-83
2021/10/12 06:06:28;;;;;;;0.52;0.40;;;;;;;;;;5105984;28;20027;-80
2021/10/12 06:08:54;;;;;;;1.20;0.73;;;;;;;;;;5094108;28;20043;-81
2021/10/12 06:11:20;;;;;;;1.10;0.60;;;;;;;;;;5111767;28;20032;-78
2021/10/12 06:13:56;;;;;;;1.73;0.65;;;;;;;;;;5112655;28;20031;-81
2021/10/12 06:16:22;;;;;;;2.72;1.20;;;;;;;;;;5093400;28;20036;-83
2021/10/12 06:18:48;;;;;;;4.20;1.45;;;;;;;;;;5111025;28;20035;-81
2021/10/12 06:21:45;;;;;;;;;;;;;;;;;;;;;
2021/10/12 06:27:08;;;;;;;3.40;1.85;;;;;;;;;;5111669;28;20114;-84
2021/10/12 06:29:34;;;;;;;;;;;;;;;;;;5093911;28;20581;-80
2021/10/12 06:32:03;;;;;;;1.98;0.90;;;;;;;;;;5112266;28;19907;-83
2021/10/12 06:34:47;;;;;;;2.38;0.90;;;;;;;;;;5111575;28;20035;-84
2021/10/12 06:37:15;;;;;;;2.05;1.27;;;;;;;;;;5093360;28;20081;-83
2021/10/12 06:39:50;;;;;;;1.55;1.10;;;;;;;;;;5093080;28;20122;-83
2021/10/12 06:42:43;;;;;;;;;;;;;;;;;;;;;
2021/10/12 06:45:40;;;;;;;;;;;;;;;;;;;;;
2021/10/12 06:48:26;;;;;;;1.67;0.80;;;;;;;;;;5112182;28;20028;-85
2021/10/12 06:51:13;;;;;;;1.63;0.82;;;;;;;;;;5111722;28;20050;-80
2021/10/12 06:53:46;;;;;;;1.70;0.95;;;;;;;;;;5111718;28;20027;-83
2021/10/12 06:56:14;;;;;;;1.45;1.02;;;;;;;;;;5093251;28;20074;-80
2021/10/12 07:02:00;;;;;;;;;;;;;;;;;;;;;
2021/10/12 07:04:39;;;;;;;;;;;;;;;;;;;;;
2021/10/12 07:07:47;;;;;;;1.75;1.10;;;;;;;;;;5107422;28;20062;-80
2021/10/12 07:10:32;;;;;;;;;;;;;;;;;;;;;
2021/10/12 07:22:39;;;;;;;2.10;0.90;;;;;;;;;;5026867;28;20643;-82
2021/10/12 07:25:25;;;;;;;0.95;0.63;;;;;;;;;;5007417;28;20591;-82
2021/10/12 07:28:09;;;;;;;2.25;1.55;;;;;;;;;;5098593;28;20038;-80
2021/10/12 07:31:05;;;;;;;;;;;;;;;;;;;;;
2021/10/12 07:33:32;;;;;;;3.90;1.52;;;;;;;;;;5110810;28;20535;-81
2021/10/12 07:41:54;;;;;;;1.00;0.90;;;;;;;;;;5061257;28;20082;-80
2021/10/12 07:44:50;;;;;;;;;;;;;;;;;;;;;
2021/10/12 07:47:17;;;;;;;2.67;1.10;;;;;;;;;;5068162;28;20035;-79
2021/10/12 07:49:45;;;;;;;1.48;0.70;;;;;;;;;;5068067;28;20043;-80
2021/10/12 07:52:14;;;;;;;1.08;0.50;;;;;;;;;;5071493;28;20519;-81
2021/10/12 07:55:00;;;;;;;1.40;0.90;;;;;;;;;;5071828;28;20037;-77
2021/10/12 07:57:26;;;;;;;1.35;0.55;;;;;;;;;;5109343;28;20108;-78
2021/10/12 08:00:00;;;;;;;1.50;0.68;;;;;;;;;;5114668;28;20557;-85
2021/10/12 08:02:49;;;;;;;1.52;0.82;;;;;;;;;;5114538;28;20034;-78
2021/10/12 08:05:45;;;;;;;;;;;;;;;;;;;;;
2021/10/12 08:08:30;;;;;;;0.90;0.65;;;;;;;;;;5114557;28;20030;-79
2021/10/12 08:11:23;;;;;;;0.82;0.60;;;;;;;;;;5114733;28;20032;-80
2021/10/12 08:17:00;;;;;;;0.50;0.43;;;;;;;;;;5104490;28;20059;-84
2021/10/12 08:19:26;;;;;;;0.40;0.40;;;;;;;;;;5114438;28;20388;-78
2021/10/12 08:22:00;;;;;;;1.20;0.50;;;;;;;;;;5114082;28;20497;-80
2021/10/12 08:24:26;;;;;;;2.20;1.20;;;;;;;;;;5114279;28;20491;-79
2021/10/12 08:26:53;;;;;;;1.48;0.77;;;;;;;;;;5114149;28;20027;-82
2021/10/12 08:29:47;;;;;;;;;;;;;;;;;;;;;
2021/10/12 08:38:24;;;;;;;;;;;;;;;;;;;;;
2021/10/12 08:44:14;;;;;;;;;;;;;;;;;;;;;
2021/10/12 08:46:55;;;;;;;;;;;;;;;;;;;;;
2021/10/12 08:52:28;;;;;;;;;;;;;;;;;;;;;
2021/10/12 08:55:28;;;;;;;;;;;;;;;;;;;;;
2021/10/12 09:01:37;;;;;;;2.58;1.15;;;;;;;;;;5022313;28;20099;-85
2021/10/12 09:04:33;;;;;;;;;;;;;;;;;;;;;
2021/10/12 09:07:30;;;;;;;;;;;;;;;;;;;;;
2021/10/12 09:10:25;;;;;;;2.22;0.82;;;;;;;;;;5092961;28;20024;-80
2021/10/12 09:13:03;;;;;;;;;;;;;;;;;;;;;
2021/10/12 09:16:01;;;;;;;2.13;1.17;;;;;;;;;;5093227;28;19922;-83
2021/10/12 09:18:35;;;;;;;2.15;1.88;;;;;;;;;;5090088;28;20090;-79
2021/10/12 09:21:13;;;;;;;2.83;0.82;;;;;;;;;;5093094;28;20427;-76
2021/10/12 09:23:42;;;;;;;4.70;1.50;;;;;;;;;;5092877;28;20043;-75
2021/10/12 09:26:22;;;;;;;1.60;0.80;;;;;;;;;;5100003;28;20031;-74
2021/10/12 09:28:48;;;;;;;1.95;1.10;;;;;;;;;;5094115;28;20126;-82
2021/10/12 09:31:14;;;;;;;1.55;0.93;;;;;;;;;;5112463;28;20023;-79
2021/10/12 09:33:59;;;;;;;1.48;0.70;;;;;;;;;;5110788;28;20032;-79
2021/10/12 09:36:35;;;;;;;1.40;0.90;;;;;;;;;;5109401;27;20038;-79
2021/10/12 09:39:04;;;;;;;1.42;1.15;;;;;;;;;;5133277;27;20035;-77
2021/10/12 09:41:32;;;;;;;2.10;1.40;;;;;;;;;;5115107;27;20039;-79
2021/10/12 09:44:06;;;;;;;1.33;0.88;;;;;;;;;;5133327;27;20449;-79
2021/10/12 09:46:34;;;;;;;1.80;1.10;;;;;;;;;;5131490;27;20023;-79
2021/10/12 10:10:52;;;;;;;3.30;2.20;;;;;;;;;;5555114;22;15143966;-88
2021/10/12 10:19:55;;;;;;;3.15;1.58;;;;;;;;;;6068690;23;20061;-81
2021/10/12 10:44:41;;;;;;;3.10;1.73;;;;;;;;;;5902801;24;20411;-80
2021/10/12 10:47:36;;;;;;;4.50;2.08;;;;;;;;;;5822087;24;20015;-87
2021/10/12 10:53:30;;;;;;;;;;;;;;;;;;;;;
2021/10/12 11:02:28;;;;;;;;;;;;;;;;;;;;;
2021/10/12 11:08:42;;;;;;;2.50;1.70;;;;;;;;;;5896794;24;20071;-83
2021/10/12 11:17:11;;;;;;;2.03;1.88;;;;;;;;;;6007149;23;20100;-81
2021/10/12 11:19:58;;;;;;;3.08;2.25;;;;;;;;;;6005908;23;20007;-83
2021/10/12 11:29:07;;;;;;;;;;;;;;;;;;;;;
2021/10/12 11:31:43;;;;;;;;;;;;;;;;;;;;;
2021/10/12 11:37:36;;;;;;;2.30;1.75;;;;;;;;;;5895326;24;20013;-80
2021/10/12 11:53:10;;;;;;;4.35;3.67;;;;;;;;;;5752135;24;20020;-83
2021/10/12 12:05:39;;;;;;;3.88;3.40;;;;;;;;;;5743099;24;20054;-79
2021/10/12 12:11:57;;;;;;;6.25;5.35;;;;;;;;;;5841962;24;20417;-80
2021/10/12 12:23:54;;;;;;;;;;;;;;;;;;;;;
2021/10/12 12:42:12;;;;;;;;;;;;;;;;;;;;;
2021/10/12 12:47:59;;;;;;;6.45;5.10;;;;;;;;;;5883913;24;20009;-78
2021/10/12 12:54:02;;;;;;;;;;;;;;;;;;;;;
2021/10/12 12:56:40;;;;;;;;;;;;;;;;;;;;;
2021/10/12 13:08:36;;;;;;;5.78;3.90;;;;;;;;;;5951609;24;20454;-82
2021/10/12 13:11:38;;;;;;;3.83;3.22;;;;;;;;;;5952071;24;20099;-83
2021/10/12 13:14:07;;;;;;;4.70;4.18;;;;;;;;;;5990919;23;20027;-82
2021/10/12 13:16:33;;;;;;;5.70;5.10;;;;;;;;;;6163968;23;20463;-80
2021/10/12 13:18:59;;;;;;;3.78;3.22;;;;;;;;;;6214323;23;20076;-78
2021/10/12 13:21:25;;;;;;;7.50;5.07;;;;;;;;;;6214857;23;20004;-82
2021/10/12 13:23:51;;;;;;;6.80;6.25;;;;;;;;;;6215042;23;20001;-77
2021/10/12 13:26:19;;;;;;;4.53;4.13;;;;;;;;;;6213016;23;20008;-80
2021/10/12 13:28:55;;;;;;;;;;;;;;;;;;;;;
2021/10/12 13:47:33;;;;;;;;;;;;;;;;;;;;;
2021/10/12 13:53:30;;;;;;;;;;;;;;;;;;;;;
2021/10/12 13:59:33;;;;;;;9.18;4.65;;;;;;;;;;6092267;23;20508;-87
2021/10/12 14:05:35;;;;;;;;;;;;;;;;;;;;;
2021/10/12 14:08:45;;;;;;;5.10;4.70;;;;;;;;;;6033198;23;20475;-83
2021/10/12 14:21:22;;;;;;;;;;;;;;;;;;;;;
2021/10/12 14:24:08;;;;;;;;;;;;;;;;;;;;;
2021/10/12 14:35:36;;;;;;;5.85;5.35;;;;;;;;;;6117629;23;20016;-83
2021/10/12 14:38:02;;;;;;;7.85;7.05;;;;;;;;;;6185009;23;20005;-79
2021/10/12 14:40:28;;;;;;;5.63;5.13;;;;;;;;;;6184662;23;20037;-82
2021/10/12 14:42:55;;;;;;;5.30;4.80;;;;;;;;;;6160768;23;20016;-85
2021/10/12 14:45:30;;;;;;;5.97;5.35;;;;;;;;;;6183651;23;20451;-80
2021/10/12 14:47:56;;;;;;;6.20;5.60;;;;;;;;;;6184109;23;20482;-82
2021/10/12 14:50:22;;;;;;;5.88;5.38;;;;;;;;;;6184734;23;20429;-81
2021/10/12 14:53:21;;;;;;;;;;;;;;;;;;;;;
2021/10/12 14:55:50;;;;;;;6.68;6.03;;;;;;;;;;6186025;23;20095;-82
2021/10/12 14:58:39;;;;;;;6.95;5.65;;;;;;;;;;6186176;23;20020;-78
2021/10/12 15:07:21;;;;;;;6.47;5.07;;;;;;;;;;6036874;23;20007;-82
2021/10/12 15:13:26;;;;;;;;;;;;;;;;;;;;;
2021/10/12 15:19:26;;;;;;;6.43;5.55;;;;;;;;;;5843477;24;20010;-83
2021/10/12 15:28:17;;;;;;;6.55;5.93;;;;;;;;;;5843164;24;20129;-80
2021/10/12 15:34:16;;;;;;;9.48;8.48;;;;;;;;;;5771999;24;20024;-83
2021/10/12 15:37:05;;;;;;;8.57;7.75;;;;;;;;;;5763684;24;20020;-82
2021/10/12 15:39:59;;;;;;;;;;;;;;;;;;;;;
2021/10/12 15:48:51;;;;;;;;;;;;;;;;;;;;;
2021/10/12 16:07:15;;;;;;;7.20;6.40;;;;;;;;;;5952119;24;20137;-81
2021/10/12 16:13:20;;;;;;;;;;;;;;;;;;;;;
2021/10/12 16:34:33;;;;;;;8.15;7.35;;;;;;;;;;5897057;24;20028;-84
2021/10/12 16:53:13;;;;;;;9.35;8.45;;;;;;;;;;5882151;24;20406;-82
2021/10/12 16:55:46;;;;;;;8.07;7.18;;;;;;;;;;5851466;24;20018;-82
2021/10/12 16:58:12;;;;;;;8.57;7.53;;;;;;;;;;6029673;23;20011;-83
2021/10/12 17:00:38;;;;;;;9.05;7.68;;;;;;;;;;6214688;23;20009;-81
2021/10/12 17:03:05;;;;;;;12.95;9.48;;;;;;;;;;6214543;23;20063;-80
2021/10/12 17:05:32;;;;;;;11.65;9.93;;;;;;;;;;6213377;23;20016;-80
2021/10/12 17:07:58;;;;;;;11.98;8.73;;;;;;;;;;6215426;23;20443;-84
2021/10/12 17:10:24;;;;;;;9.50;8.02;;;;;;;;;;6213356;23;20040;-78
2021/10/12 17:12:51;;;;;;;7.57;6.85;;;;;;;;;;6214627;23;20013;-80
2021/10/12 17:15:17;;;;;;;9.18;7.38;;;;;;;;;;6214896;23;20000;-77
2021/10/12 17:17:43;;;;;;;12.18;10.45;;;;;;;;;;6214727;23;20005;-78
2021/10/12 17:20:09;;;;;;;14.82;9.77;;;;;;;;;;6214949;23;20414;-80
2021/10/12 17:22:35;;;;;;;8.90;7.97;;;;;;;;;;6214158;23;20008;-80
2021/10/12 17:25:01;;;;;;;10.02;9.02;;;;;;;;;;6214708;23;20004;-80
2021/10/12 17:27:28;;;;;;;14.13;12.35;;;;;;;;;;6212488;23;19996;-78
2021/10/12 17:29:58;;;;;;;11.40;9.75;;;;;;;;;;6212340;23;20010;-78
2021/10/12 17:32:37;;;;;;;12.75;10.85;;;;;;;;;;6214190;23;20062;-81
2021/10/12 17:41:17;;;;;;;11.07;8.85;;;;;;;;;;6053180;23;20439;-79
2021/10/12 17:47:29;;;;;;;;;;;;;;;;;;;;;
2021/10/12 18:11:08;;;;;;;;;;;;;;;;;;;;;
2021/10/12 18:13:48;;;;;;;;;;;;;;;;;;;;;
2021/10/12 18:28:33;;;;;;;;;;;;;;;;;;;;;
2021/10/12 18:37:07;;;;;;;11.57;9.45;;;;;;;;;;5860293;24;19911;-83
2021/10/12 18:58:30;;;;;;;11.60;10.02;;;;;;;;;;5772600;24;20023;-80
2021/10/12 19:01:47;;;;;;;;;;;;;;;;;;;;;
2021/10/12 19:13:21;;;;;;;14.25;10.48;;;;;;;;;;5897773;24;20025;-81
2021/10/12 19:16:16;;;;;;;12.90;11.13;;;;;;;;;;5898022;24;20013;-83
2021/10/12 19:28:03;;;;;;;;;;;;;;;;;;;;;
2021/10/12 19:40:31;;;;;;;;;;;;;;;;;;;;;
2021/10/12 19:46:34;;;;;;;;;;;;;;;;;;;;;
2021/10/12 19:49:28;;;;;;;18.30;13.63;;;;;;;;;;5814718;24;20101;-79
2021/10/12 19:55:34;;;;;;;;;;;;;;;;;;;;;
2021/10/12 19:58:51;;;;;;;;;;;;;;;;;;;;;
2021/10/12 20:04:19;;;;;;;16.10;13.82;;;;;;;;;;5906494;24;20066;-78
2021/10/12 20:25:05;;;;;;;16.88;14.07;;;;;;;;;;5764095;24;20016;-78
2021/10/12 20:34:17;;;;;;;;;;;;;;;;;;;;;
2021/10/12 20:52:46;;;;;;;;;;;;;;;;;;;;;
2021/10/12 20:59:01;;;;;;;;;;;;;;;;;;;;;
2021/10/12 21:05:15;;;;;;;18.52;14.55;;;;;;;;;;6213327;22;20078;-79
2021/10/12 21:08:19;;;;;;;;;;;;;;;;;;;;;
2021/10/12 21:11:26;;;;;;;17.98;15.25;;;;;;;;;;6275853;22;20086;-80
2021/10/12 21:14:13;;;;;;;;;;;;;;;;;;;;;
2021/10/12 21:23:01;;;;;;;21.65;14.77;;;;;;;;;;6152155;23;20005;-77
2021/10/12 21:25:32;;;;;;;19.48;15.43;;;;;;;;;;6152532;23;20056;-75
2021/10/12 21:28:31;;;;;;;;;;;;;;;;;;;;;
2021/10/12 21:34:08;;;;;;;18.77;14.63;;;;;;;;;;6093571;23;20020;-79
2021/10/12 21:37:26;;;;;;;;;;;;;;;;;;;;;
2021/10/12 21:39:51;;;;;;;;;;;;;;;;;;;;;
2021/10/12 21:42:43;;;;;;;19.63;14.80;;;;;;;;;;6096830;23;20534;-77
2021/10/12 21:51:32;;;;;;;17.67;14.68;;;;;;;;;;6073729;23;20010;-77
2021/10/12 21:57:33;;;;;;;16.30;13.90;;;;;;;;;;6073626;23;20010;-78
2021/10/12 22:02:58;;;;;;;;;;;;;;;;;;;;;
2021/10/12 22:14:57;;;;;;;18.67;14.25;;;;;;;;;;6035775;23;20019;-80
2021/10/12 22:17:51;;;;;;;16.15;13.65;;;;;;;;;;6033668;23;20015;-77
2021/10/12 22:20:47;;;;;;;;;;;;;;;;;;;;;
2021/10/12 22:42:18;;;;;;;;;;;;;;;;;;;;;
2021/10/12 23:03:41;;;;;;;16.33;12.32;;;;;;;;;;5917693;24;20025;-75
2021/10/12 23:06:37;;;;;;;;;;;;;;;;;;;;;
2021/10/12 23:51:55;;;;;;;13.55;11.85;;;;;;;;;;5870345;24;20018;-81
2021/10/12 23:54:50;;;;;;;14.98;12.43;;;;;;;;;;5870300;24;20018;-77
